sensor_id;sensor_type;location;lat;lon;timestamp;P1;durP1;ratioP1;P2;durP2;ratioP2
82656;SDS011;72357;52.110;5.252;2023-08-20T00:00:09;9.9;;;4.91;;
82656;SDS011;72357;52.110;5.252;2023-08-20T00:01:46;10.4;;;4.2;;
82656;SDS011;72357;52.110;5.252;2023-08-20T00:03:30;8.1;;;4.1;;
82656;SDS011;72357;52.110;5.252;2023-08-20T00:06:45;10.7;;;4.5;;
82656;SDS011;72357;52.110;5.252;2023-08-20T00:08:22;9.21;;;4.3;;
82656;SDS011;72357;52.110;5.252;2023-08-20T00:09:59;11.5;;;5.2;;
82656;SDS011;72357;52.110;5.252;2023-08-20T00:11:36;10.7;;;4.41;;
82656;SDS011;72357;52.110;5.252;2023-08-20T00:14:52;9.1;;;4.5;;
82656;SDS011;72357;52.110;5.252;2023-08-20T00:16:31;7.8;;;4.1;;
82656;SDS011;72357;52.110;5.252;2023-08-20T00:18:08;10.8;;;5.0;;
82656;SDS011;72357;52.110;5.252;2023-08-20T00:21:24;9.81;;;4.41;;
82656;SDS011;72357;52.110;5.252;2023-08-20T00:23:03;8.31;;;4.0;;
82656;SDS011;72357;52.110;5.252;2023-08-20T00:24:41;9.9;;;4.5;;
82656;SDS011;72357;52.110;5.252;2023-08-20T00:29:31;9.71;;;4.7;;
82656;SDS011;72357;52.110;5.252;2023-08-20T00:31:08;12.7;;;4.61;;
82656;SDS011;72357;52.110;5.252;2023-08-20T00:32:44;7.7;;;4.3;;
82656;SDS011;72357;52.110;5.252;2023-08-20T00:35:57;11.6;;;4.1;;
82656;SDS011;72357;52.110;5.252;2023-08-20T00:37:34;9.71;;;4.0;;
82656;SDS011;72357;52.110;5.252;2023-08-20T00:39:10;7.2;;;4.2;;
82656;SDS011;72357;52.110;5.252;2023-08-20T00:42:24;12.6;;;4.8;;
82656;SDS011;72357;52.110;5.252;2023-08-20T00:44:02;9.71;;;4.3;;
82656;SDS011;72357;52.110;5.252;2023-08-20T00:45:40;7.3;;;4.0;;
82656;SDS011;72357;52.110;5.252;2023-08-20T00:47:18;8.2;;;4.3;;
82656;SDS011;72357;52.110;5.252;2023-08-20T00:50:32;10.6;;;4.3;;
82656;SDS011;72357;52.110;5.252;2023-08-20T00:52:10;9.31;;;4.0;;
82656;SDS011;72357;52.110;5.252;2023-08-20T00:53:49;9.31;;;4.0;;
82656;SDS011;72357;52.110;5.252;2023-08-20T00:57:04;9.6;;;4.41;;
82656;SDS011;72357;52.110;5.252;2023-08-20T00:58:42;9.21;;;4.7;;
82656;SDS011;72357;52.110;5.252;2023-08-20T01:00:20;6.8;;;4.2;;
82656;SDS011;72357;52.110;5.252;2023-08-20T01:02:00;6.8;;;4.0;;
82656;SDS011;72357;52.110;5.252;2023-08-20T01:05:14;11.1;;;4.3;;
82656;SDS011;72357;52.110;5.252;2023-08-20T01:06:53;8.31;;;4.1;;
82656;SDS011;72357;52.110;5.252;2023-08-20T01:08:39;7.0;;;4.0;;
82656;SDS011;72357;52.110;5.252;2023-08-20T01:10:18;8.6;;;4.3;;
82656;SDS011;72357;52.110;5.252;2023-08-20T01:13:40;9.0;;;4.7;;
82656;SDS011;72357;52.110;5.252;2023-08-20T01:15:16;11.3;;;4.91;;
82656;SDS011;72357;52.110;5.252;2023-08-20T01:16:53;10.4;;;4.8;;
82656;SDS011;72357;52.110;5.252;2023-08-20T01:18:29;9.5;;;4.41;;
82656;SDS011;72357;52.110;5.252;2023-08-20T01:21:47;10.9;;;4.7;;
82656;SDS011;72357;52.110;5.252;2023-08-20T01:23:53;10.4;;;5.11;;
82656;SDS011;72357;52.110;5.252;2023-08-20T01:25:44;9.81;;;4.5;;
82656;SDS011;72357;52.110;5.252;2023-08-20T01:27:38;8.31;;;4.7;;
82656;SDS011;72357;52.110;5.252;2023-08-20T01:29:34;9.9;;;4.91;;
82656;SDS011;72357;52.110;5.252;2023-08-20T01:31:12;9.71;;;4.8;;
82656;SDS011;72357;52.110;5.252;2023-08-20T01:34:30;7.6;;;4.5;;
82656;SDS011;72357;52.110;5.252;2023-08-20T01:36:07;9.6;;;4.41;;
82656;SDS011;72357;52.110;5.252;2023-08-20T01:37:45;8.6;;;4.41;;
82656;SDS011;72357;52.110;5.252;2023-08-20T01:40:57;9.1;;;4.91;;
82656;SDS011;72357;52.110;5.252;2023-08-20T01:42:34;10.4;;;4.8;;
82656;SDS011;72357;52.110;5.252;2023-08-20T01:44:11;10.7;;;4.91;;
82656;SDS011;72357;52.110;5.252;2023-08-20T01:45:48;8.31;;;4.61;;
82656;SDS011;72357;52.110;5.252;2023-08-20T01:49:02;8.71;;;5.3;;
82656;SDS011;72357;52.110;5.252;2023-08-20T01:50:39;10.7;;;5.0;;
82656;SDS011;72357;52.110;5.252;2023-08-20T01:52:15;11.9;;;4.91;;
82656;SDS011;72357;52.110;5.252;2023-08-20T01:55:28;11.6;;;4.91;;
82656;SDS011;72357;52.110;5.252;2023-08-20T01:57:05;8.71;;;4.8;;
82656;SDS011;72357;52.110;5.252;2023-08-20T01:58:42;11.3;;;5.11;;
82656;SDS011;72357;52.110;5.252;2023-08-20T02:00:19;7.8;;;4.2;;
82656;SDS011;72357;52.110;5.252;2023-08-20T02:03:31;10.1;;;4.41;;
82656;SDS011;72357;52.110;5.252;2023-08-20T02:05:07;8.1;;;4.3;;
82656;SDS011;72357;52.110;5.252;2023-08-20T02:06:44;8.2;;;4.41;;
82656;SDS011;72357;52.110;5.252;2023-08-20T02:09:57;7.3;;;4.5;;
82656;SDS011;72357;52.110;5.252;2023-08-20T02:11:34;6.7;;;4.0;;
82656;SDS011;72357;52.110;5.252;2023-08-20T02:13:10;7.5;;;4.2;;
82656;SDS011;72357;52.110;5.252;2023-08-20T02:16:24;8.71;;;4.41;;
82656;SDS011;72357;52.110;5.252;2023-08-20T02:18:00;7.8;;;4.3;;
82656;SDS011;72357;52.110;5.252;2023-08-20T02:19:37;9.5;;;4.8;;
82656;SDS011;72357;52.110;5.252;2023-08-20T02:21:14;8.81;;;5.3;;
82656;SDS011;72357;52.110;5.252;2023-08-20T02:24:28;9.0;;;4.61;;
82656;SDS011;72357;52.110;5.252;2023-08-20T02:26:05;8.6;;;4.41;;
82656;SDS011;72357;52.110;5.252;2023-08-20T02:27:41;8.71;;;5.11;;
82656;SDS011;72357;52.110;5.252;2023-08-20T02:30:54;10.0;;;5.11;;
82656;SDS011;72357;52.110;5.252;2023-08-20T02:32:31;8.81;;;4.91;;
82656;SDS011;72357;52.110;5.252;2023-08-20T02:34:07;9.9;;;5.0;;
82656;SDS011;72357;52.110;5.252;2023-08-20T02:37:21;7.6;;;4.61;;
82656;SDS011;72357;52.110;5.252;2023-08-20T02:38:58;9.1;;;4.7;;
82656;SDS011;72357;52.110;5.252;2023-08-20T02:40:39;7.9;;;4.8;;
82656;SDS011;72357;52.110;5.252;2023-08-20T02:42:16;8.81;;;4.7;;
82656;SDS011;72357;52.110;5.252;2023-08-20T02:45:29;9.6;;;5.4;;
82656;SDS011;72357;52.110;5.252;2023-08-20T02:47:05;10.7;;;5.6;;
82656;SDS011;72357;52.110;5.252;2023-08-20T02:48:42;10.6;;;5.7;;
82656;SDS011;72357;52.110;5.252;2023-08-20T02:51:56;8.1;;;5.0;;
82656;SDS011;72357;52.110;5.252;2023-08-20T02:53:32;9.81;;;6.0;;
82656;SDS011;72357;52.110;5.252;2023-08-20T02:55:09;9.5;;;5.5;;
82656;SDS011;72357;52.110;5.252;2023-08-20T02:58:24;8.31;;;5.5;;
82656;SDS011;72357;52.110;5.252;2023-08-20T03:00:01;12.7;;;6.0;;
82656;SDS011;72357;52.110;5.252;2023-08-20T03:01:38;11.2;;;5.8;;
82656;SDS011;72357;52.110;5.252;2023-08-20T03:03:15;10.21;;;5.6;;
82656;SDS011;72357;52.110;5.252;2023-08-20T03:06:28;11.2;;;6.2;;
82656;SDS011;72357;52.110;5.252;2023-08-20T03:08:05;10.9;;;6.3;;
82656;SDS011;72357;52.110;5.252;2023-08-20T03:09:42;11.3;;;5.6;;
82656;SDS011;72357;52.110;5.252;2023-08-20T03:12:56;10.7;;;6.2;;
82656;SDS011;72357;52.110;5.252;2023-08-20T03:14:33;12.0;;;6.4;;
82656;SDS011;72357;52.110;5.252;2023-08-20T03:16:09;13.6;;;6.1;;
82656;SDS011;72357;52.110;5.252;2023-08-20T03:17:45;11.8;;;5.8;;
82656;SDS011;72357;52.110;5.252;2023-08-20T03:20:59;11.3;;;6.2;;
82656;SDS011;72357;52.110;5.252;2023-08-20T03:22:36;9.31;;;5.7;;
82656;SDS011;72357;52.110;5.252;2023-08-20T03:24:14;10.6;;;5.9;;
82656;SDS011;72357;52.110;5.252;2023-08-20T03:27:28;9.71;;;6.1;;
82656;SDS011;72357;52.110;5.252;2023-08-20T03:29:04;12.2;;;6.8;;
82656;SDS011;72357;52.110;5.252;2023-08-20T03:30:41;9.1;;;5.8;;
82656;SDS011;72357;52.110;5.252;2023-08-20T03:33:54;12.3;;;5.9;;
82656;SDS011;72357;52.110;5.252;2023-08-20T03:35:31;13.1;;;6.7;;
82656;SDS011;72357;52.110;5.252;2023-08-20T03:37:07;11.5;;;6.0;;
82656;SDS011;72357;52.110;5.252;2023-08-20T03:38:44;14.3;;;6.2;;
82656;SDS011;72357;52.110;5.252;2023-08-20T03:41:56;11.7;;;6.5;;
82656;SDS011;72357;52.110;5.252;2023-08-20T03:43:33;9.6;;;5.9;;
82656;SDS011;72357;52.110;5.252;2023-08-20T03:45:10;11.8;;;6.3;;
82656;SDS011;72357;52.110;5.252;2023-08-20T03:48:23;8.0;;;5.8;;
82656;SDS011;72357;52.110;5.252;2023-08-20T03:50:00;12.6;;;6.2;;
82656;SDS011;72357;52.110;5.252;2023-08-20T03:51:36;10.4;;;5.7;;
82656;SDS011;72357;52.110;5.252;2023-08-20T03:54:50;12.5;;;6.7;;
82656;SDS011;72357;52.110;5.252;2023-08-20T03:56:27;11.2;;;6.0;;
82656;SDS011;72357;52.110;5.252;2023-08-20T03:58:03;13.5;;;6.5;;
82656;SDS011;72357;52.110;5.252;2023-08-20T03:59:40;11.3;;;5.9;;
82656;SDS011;72357;52.110;5.252;2023-08-20T04:02:53;10.6;;;5.5;;
82656;SDS011;72357;52.110;5.252;2023-08-20T04:04:30;10.8;;;5.8;;
82656;SDS011;72357;52.110;5.252;2023-08-20T04:06:07;9.31;;;5.6;;
82656;SDS011;72357;52.110;5.252;2023-08-20T04:09:20;12.5;;;6.6;;
82656;SDS011;72357;52.110;5.252;2023-08-20T04:10:56;13.0;;;6.7;;
82656;SDS011;72357;52.110;5.252;2023-08-20T04:12:33;12.5;;;6.1;;
82656;SDS011;72357;52.110;5.252;2023-08-20T04:15:46;12.7;;;6.4;;
82656;SDS011;72357;52.110;5.252;2023-08-20T04:17:24;11.8;;;5.6;;
82656;SDS011;72357;52.110;5.252;2023-08-20T04:19:00;11.2;;;6.0;;
82656;SDS011;72357;52.110;5.252;2023-08-20T04:23:50;9.21;;;5.6;;
82656;SDS011;72357;52.110;5.252;2023-08-20T04:25:26;11.3;;;5.7;;
82656;SDS011;72357;52.110;5.252;2023-08-20T04:27:02;10.7;;;6.3;;
82656;SDS011;72357;52.110;5.252;2023-08-20T04:30:16;13.8;;;6.5;;
82656;SDS011;72357;52.110;5.252;2023-08-20T04:31:54;11.9;;;6.3;;
82656;SDS011;72357;52.110;5.252;2023-08-20T04:33:30;10.5;;;5.7;;
82656;SDS011;72357;52.110;5.252;2023-08-20T04:36:43;7.5;;;5.11;;
82656;SDS011;72357;52.110;5.252;2023-08-20T04:38:20;9.71;;;5.11;;
82656;SDS011;72357;52.110;5.252;2023-08-20T04:39:57;9.1;;;5.0;;
82656;SDS011;72357;52.110;5.252;2023-08-20T04:41:34;9.81;;;5.0;;
82656;SDS011;72357;52.110;5.252;2023-08-20T04:44:47;9.31;;;5.3;;
82656;SDS011;72357;52.110;5.252;2023-08-20T04:46:24;9.6;;;5.11;;
82656;SDS011;72357;52.110;5.252;2023-08-20T04:48:01;10.8;;;5.9;;
82656;SDS011;72357;52.110;5.252;2023-08-20T04:51:14;9.81;;;5.8;;
82656;SDS011;72357;52.110;5.252;2023-08-20T04:52:51;10.8;;;5.8;;
82656;SDS011;72357;52.110;5.252;2023-08-20T04:54:28;9.71;;;5.5;;
82656;SDS011;72357;52.110;5.252;2023-08-20T04:56:04;9.81;;;5.2;;
82656;SDS011;72357;52.110;5.252;2023-08-20T04:59:18;8.71;;;5.5;;
82656;SDS011;72357;52.110;5.252;2023-08-20T05:00:54;11.1;;;6.1;;
82656;SDS011;72357;52.110;5.252;2023-08-20T05:02:31;8.81;;;5.3;;
82656;SDS011;72357;52.110;5.252;2023-08-20T05:05:48;11.1;;;5.7;;
82656;SDS011;72357;52.110;5.252;2023-08-20T05:07:25;11.1;;;5.7;;
82656;SDS011;72357;52.110;5.252;2023-08-20T05:09:02;11.6;;;6.0;;
82656;SDS011;72357;52.110;5.252;2023-08-20T05:12:15;8.6;;;5.2;;
82656;SDS011;72357;52.110;5.252;2023-08-20T05:13:54;9.4;;;5.4;;
82656;SDS011;72357;52.110;5.252;2023-08-20T05:15:32;9.9;;;5.7;;
82656;SDS011;72357;52.110;5.252;2023-08-20T05:17:08;10.8;;;5.8;;
82656;SDS011;72357;52.110;5.252;2023-08-20T05:20:22;8.31;;;5.5;;
82656;SDS011;72357;52.110;5.252;2023-08-20T05:21:59;10.5;;;5.8;;
82656;SDS011;72357;52.110;5.252;2023-08-20T05:23:35;7.1;;;5.0;;
82656;SDS011;72357;52.110;5.252;2023-08-20T05:26:50;13.5;;;5.4;;
82656;SDS011;72357;52.110;5.252;2023-08-20T05:28:40;8.2;;;5.4;;
82656;SDS011;72357;52.110;5.252;2023-08-20T05:30:17;8.9;;;5.7;;
82656;SDS011;72357;52.110;5.252;2023-08-20T05:31:53;8.1;;;5.11;;
82656;SDS011;72357;52.110;5.252;2023-08-20T05:35:08;9.6;;;5.6;;
82656;SDS011;72357;52.110;5.252;2023-08-20T05:38:22;9.71;;;5.3;;
82656;SDS011;72357;52.110;5.252;2023-08-20T05:41:35;8.0;;;5.3;;
82656;SDS011;72357;52.110;5.252;2023-08-20T05:43:12;9.6;;;5.5;;
82656;SDS011;72357;52.110;5.252;2023-08-20T05:44:48;8.81;;;4.7;;
82656;SDS011;72357;52.110;5.252;2023-08-20T05:46:24;8.6;;;5.2;;
82656;SDS011;72357;52.110;5.252;2023-08-20T05:49:38;9.0;;;5.2;;
82656;SDS011;72357;52.110;5.252;2023-08-20T05:51:14;7.8;;;5.11;;
82656;SDS011;72357;52.110;5.252;2023-08-20T05:52:50;9.1;;;5.5;;
82656;SDS011;72357;52.110;5.252;2023-08-20T05:56:05;9.4;;;5.4;;
82656;SDS011;72357;52.110;5.252;2023-08-20T05:57:41;8.5;;;5.5;;
82656;SDS011;72357;52.110;5.252;2023-08-20T06:00:54;8.71;;;5.7;;
82656;SDS011;72357;52.110;5.252;2023-08-20T06:04:08;9.71;;;5.3;;
82656;SDS011;72357;52.110;5.252;2023-08-20T06:05:46;10.21;;;6.0;;
82656;SDS011;72357;52.110;5.252;2023-08-20T06:07:22;11.1;;;6.2;;
82656;SDS011;72357;52.110;5.252;2023-08-20T06:10:36;12.1;;;6.0;;
82656;SDS011;72357;52.110;5.252;2023-08-20T06:12:13;10.9;;;5.7;;
82656;SDS011;72357;52.110;5.252;2023-08-20T06:13:50;11.2;;;5.9;;
82656;SDS011;72357;52.110;5.252;2023-08-20T06:17:04;9.1;;;5.7;;
82656;SDS011;72357;52.110;5.252;2023-08-20T06:18:41;9.21;;;5.2;;
82656;SDS011;72357;52.110;5.252;2023-08-20T06:20:17;7.6;;;4.8;;
82656;SDS011;72357;52.110;5.252;2023-08-20T06:21:54;12.2;;;6.3;;
82656;SDS011;72357;52.110;5.252;2023-08-20T06:25:07;8.5;;;4.91;;
82656;SDS011;72357;52.110;5.252;2023-08-20T06:26:44;11.3;;;5.4;;
82656;SDS011;72357;52.110;5.252;2023-08-20T06:28:21;12.8;;;5.4;;
82656;SDS011;72357;52.110;5.252;2023-08-20T06:31:34;10.9;;;5.11;;
82656;SDS011;72357;52.110;5.252;2023-08-20T06:33:11;10.7;;;5.5;;
82656;SDS011;72357;52.110;5.252;2023-08-20T06:34:48;12.3;;;4.91;;
82656;SDS011;72357;52.110;5.252;2023-08-20T06:38:02;9.31;;;4.61;;
82656;SDS011;72357;52.110;5.252;2023-08-20T06:39:39;11.2;;;5.2;;
82656;SDS011;72357;52.110;5.252;2023-08-20T06:41:17;11.0;;;4.5;;
82656;SDS011;72357;52.110;5.252;2023-08-20T06:42:54;11.0;;;4.5;;
82656;SDS011;72357;52.110;5.252;2023-08-20T06:46:08;9.71;;;4.1;;
82656;SDS011;72357;52.110;5.252;2023-08-20T06:47:44;10.6;;;4.41;;
82656;SDS011;72357;52.110;5.252;2023-08-20T06:49:21;11.7;;;4.5;;
82656;SDS011;72357;52.110;5.252;2023-08-20T06:52:33;8.1;;;3.9;;
82656;SDS011;72357;52.110;5.252;2023-08-20T06:54:09;10.6;;;4.0;;
82656;SDS011;72357;52.110;5.252;2023-08-20T06:55:45;9.0;;;3.7;;
82656;SDS011;72357;52.110;5.252;2023-08-20T06:58:59;12.9;;;4.0;;
82656;SDS011;72357;52.110;5.252;2023-08-20T07:00:37;9.21;;;3.9;;
82656;SDS011;72357;52.110;5.252;2023-08-20T07:02:13;11.2;;;4.2;;
82656;SDS011;72357;52.110;5.252;2023-08-20T07:03:51;12.9;;;4.2;;
82656;SDS011;72357;52.110;5.252;2023-08-20T07:07:04;11.5;;;4.0;;
82656;SDS011;72357;52.110;5.252;2023-08-20T07:08:40;9.5;;;4.1;;
82656;SDS011;72357;52.110;5.252;2023-08-20T07:10:18;9.1;;;3.6;;
82656;SDS011;72357;52.110;5.252;2023-08-20T07:13:31;9.81;;;4.1;;
82656;SDS011;72357;52.110;5.252;2023-08-20T07:15:08;12.6;;;4.0;;
82656;SDS011;72357;52.110;5.252;2023-08-20T07:16:45;11.1;;;3.2;;
82656;SDS011;72357;52.110;5.252;2023-08-20T07:18:22;11.8;;;3.7;;
82656;SDS011;72357;52.110;5.252;2023-08-20T07:21:36;9.31;;;3.1;;
82656;SDS011;72357;52.110;5.252;2023-08-20T07:23:13;10.8;;;3.6;;
82656;SDS011;72357;52.110;5.252;2023-08-20T07:24:50;10.1;;;3.7;;
82656;SDS011;72357;52.110;5.252;2023-08-20T07:28:03;11.3;;;4.2;;
82656;SDS011;72357;52.110;5.252;2023-08-20T07:29:41;10.9;;;3.8;;
82656;SDS011;72357;52.110;5.252;2023-08-20T07:31:17;10.7;;;3.6;;
82656;SDS011;72357;52.110;5.252;2023-08-20T07:34:32;12.1;;;3.7;;
82656;SDS011;72357;52.110;5.252;2023-08-20T07:36:09;12.2;;;3.7;;
82656;SDS011;72357;52.110;5.252;2023-08-20T07:37:46;11.0;;;3.2;;
82656;SDS011;72357;52.110;5.252;2023-08-20T07:39:23;11.3;;;3.3;;
82656;SDS011;72357;52.110;5.252;2023-08-20T07:42:37;9.6;;;2.6;;
82656;SDS011;72357;52.110;5.252;2023-08-20T07:44:14;9.0;;;2.9;;
82656;SDS011;72357;52.110;5.252;2023-08-20T07:45:51;10.4;;;3.0;;
82656;SDS011;72357;52.110;5.252;2023-08-20T07:49:04;9.81;;;2.9;;
82656;SDS011;72357;52.110;5.252;2023-08-20T07:50:42;7.5;;;2.7;;
82656;SDS011;72357;52.110;5.252;2023-08-20T07:52:19;7.5;;;2.31;;
82656;SDS011;72357;52.110;5.252;2023-08-20T07:53:56;12.1;;;3.1;;
82656;SDS011;72357;52.110;5.252;2023-08-20T07:57:10;8.4;;;2.4;;
82656;SDS011;72357;52.110;5.252;2023-08-20T07:58:47;8.9;;;2.7;;
82656;SDS011;72357;52.110;5.252;2023-08-20T08:00:23;8.2;;;2.21;;
82656;SDS011;72357;52.110;5.252;2023-08-20T08:03:37;7.0;;;2.1;;
82656;SDS011;72357;52.110;5.252;2023-08-20T08:05:14;8.5;;;2.31;;
82656;SDS011;72357;52.110;5.252;2023-08-20T08:06:51;6.9;;;2.21;;
82656;SDS011;72357;52.110;5.252;2023-08-20T08:10:05;7.2;;;2.0;;
82656;SDS011;72357;52.110;5.252;2023-08-20T08:11:43;8.1;;;2.21;;
82656;SDS011;72357;52.110;5.252;2023-08-20T08:13:22;8.31;;;2.21;;
82656;SDS011;72357;52.110;5.252;2023-08-20T08:14:59;8.81;;;2.8;;
82656;SDS011;72357;52.110;5.252;2023-08-20T08:18:12;7.2;;;2.1;;
82656;SDS011;72357;52.110;5.252;2023-08-20T08:19:49;9.4;;;2.4;;
82656;SDS011;72357;52.110;5.252;2023-08-20T08:21:26;6.9;;;2.1;;
82656;SDS011;72357;52.110;5.252;2023-08-20T08:24:40;6.9;;;1.9;;
82656;SDS011;72357;52.110;5.252;2023-08-20T08:26:17;8.9;;;2.7;;
82656;SDS011;72357;52.110;5.252;2023-08-20T08:27:54;8.1;;;2.31;;
82656;SDS011;72357;52.110;5.252;2023-08-20T08:29:31;7.5;;;2.1;;
82656;SDS011;72357;52.110;5.252;2023-08-20T08:32:44;7.0;;;2.0;;
82656;SDS011;72357;52.110;5.252;2023-08-20T08:34:21;4.1;;;1.8;;
82656;SDS011;72357;52.110;5.252;2023-08-20T08:35:59;7.4;;;2.1;;
82656;SDS011;72357;52.110;5.252;2023-08-20T08:39:13;7.3;;;2.21;;
82656;SDS011;72357;52.110;5.252;2023-08-20T08:40:50;8.1;;;2.1;;
82656;SDS011;72357;52.110;5.252;2023-08-20T08:42:27;6.9;;;2.1;;
82656;SDS011;72357;52.110;5.252;2023-08-20T08:45:46;5.8;;;1.8;;
82656;SDS011;72357;52.110;5.252;2023-08-20T08:47:23;6.2;;;2.21;;
82656;SDS011;72357;52.110;5.252;2023-08-20T08:49:02;6.4;;;2.0;;
82656;SDS011;72357;52.110;5.252;2023-08-20T08:50:39;7.1;;;1.8;;
82656;SDS011;72357;52.110;5.252;2023-08-20T08:53:55;7.4;;;1.7;;
82656;SDS011;72357;52.110;5.252;2023-08-20T08:55:33;8.71;;;2.1;;
82656;SDS011;72357;52.110;5.252;2023-08-20T08:57:10;4.41;;;1.6;;
82656;SDS011;72357;52.110;5.252;2023-08-20T08:58:47;6.6;;;2.0;;
82656;SDS011;72357;52.110;5.252;2023-08-20T09:02:00;6.4;;;1.8;;
82656;SDS011;72357;52.110;5.252;2023-08-20T09:03:38;9.81;;;2.0;;
82656;SDS011;72357;52.110;5.252;2023-08-20T09:05:15;8.5;;;1.9;;
82656;SDS011;72357;52.110;5.252;2023-08-20T09:08:32;5.11;;;1.6;;
82656;SDS011;72357;52.110;5.252;2023-08-20T09:10:08;5.0;;;1.7;;
82656;SDS011;72357;52.110;5.252;2023-08-20T09:11:45;6.3;;;1.8;;
82656;SDS011;72357;52.110;5.252;2023-08-20T09:15:00;5.8;;;1.6;;
82656;SDS011;72357;52.110;5.252;2023-08-20T09:16:38;6.9;;;1.8;;
82656;SDS011;72357;52.110;5.252;2023-08-20T09:18:15;6.8;;;2.1;;
82656;SDS011;72357;52.110;5.252;2023-08-20T09:19:52;8.0;;;2.1;;
82656;SDS011;72357;52.110;5.252;2023-08-20T09:23:10;6.8;;;1.9;;
82656;SDS011;72357;52.110;5.252;2023-08-20T09:26:30;5.9;;;1.6;;
82656;SDS011;72357;52.110;5.252;2023-08-20T09:28:08;5.7;;;1.6;;
82656;SDS011;72357;52.110;5.252;2023-08-20T09:31:37;6.5;;;1.6;;
82656;SDS011;72357;52.110;5.252;2023-08-20T09:33:16;5.3;;;1.6;;
82656;SDS011;72357;52.110;5.252;2023-08-20T09:34:54;5.2;;;1.7;;
82656;SDS011;72357;52.110;5.252;2023-08-20T09:36:32;7.7;;;1.6;;
82656;SDS011;72357;52.110;5.252;2023-08-20T09:39:47;4.0;;;1.3;;
82656;SDS011;72357;52.110;5.252;2023-08-20T09:41:25;4.61;;;1.3;;
82656;SDS011;72357;52.110;5.252;2023-08-20T09:43:02;4.1;;;1.3;;
82656;SDS011;72357;52.110;5.252;2023-08-20T09:46:20;2.4;;;1.11;;
82656;SDS011;72357;52.110;5.252;2023-08-20T09:48:00;4.91;;;1.4;;
82656;SDS011;72357;52.110;5.252;2023-08-20T09:49:46;4.91;;;1.4;;
82656;SDS011;72357;52.110;5.252;2023-08-20T09:51:25;4.0;;;1.3;;
82656;SDS011;72357;52.110;5.252;2023-08-20T09:54:50;4.7;;;1.2;;
82656;SDS011;72357;52.110;5.252;2023-08-20T09:56:37;4.1;;;1.3;;
82656;SDS011;72357;52.110;5.252;2023-08-20T09:58:16;5.8;;;1.3;;
82656;SDS011;72357;52.110;5.252;2023-08-20T09:59:53;4.3;;;1.11;;
82656;SDS011;72357;52.110;5.252;2023-08-20T10:01:31;4.5;;;1.2;;
82656;SDS011;72357;52.110;5.252;2023-08-20T10:04:46;4.5;;;1.0;;
82656;SDS011;72357;52.110;5.252;2023-08-20T10:06:26;5.11;;;1.11;;
82656;SDS011;72357;52.110;5.252;2023-08-20T10:08:06;3.9;;;1.3;;
82656;SDS011;72357;52.110;5.252;2023-08-20T10:11:23;5.7;;;1.3;;
82656;SDS011;72357;52.110;5.252;2023-08-20T10:13:00;4.0;;;1.2;;
82656;SDS011;72357;52.110;5.252;2023-08-20T10:14:36;3.9;;;1.2;;
82656;SDS011;72357;52.110;5.252;2023-08-20T10:16:16;5.8;;;1.6;;
82656;SDS011;72357;52.110;5.252;2023-08-20T10:19:30;5.0;;;1.2;;
82656;SDS011;72357;52.110;5.252;2023-08-20T10:21:06;3.3;;;0.9;;
82656;SDS011;72357;52.110;5.252;2023-08-20T10:22:44;4.7;;;1.2;;
82656;SDS011;72357;52.110;5.252;2023-08-20T10:26:06;5.11;;;1.3;;
82656;SDS011;72357;52.110;5.252;2023-08-20T10:27:44;5.11;;;1.4;;
82656;SDS011;72357;52.110;5.252;2023-08-20T10:29:37;3.9;;;1.2;;
82656;SDS011;72357;52.110;5.252;2023-08-20T10:32:54;4.3;;;1.2;;
82656;SDS011;72357;52.110;5.252;2023-08-20T10:36:13;12.9;;;1.9;;
82656;SDS011;72357;52.110;5.252;2023-08-20T10:38:11;8.9;;;1.6;;
82656;SDS011;72357;52.110;5.252;2023-08-20T10:39:53;5.8;;;1.2;;
82656;SDS011;72357;52.110;5.252;2023-08-20T10:41:30;4.3;;;1.2;;
82656;SDS011;72357;52.110;5.252;2023-08-20T10:44:58;6.6;;;1.4;;
82656;SDS011;72357;52.110;5.252;2023-08-20T10:46:38;3.9;;;1.4;;
82656;SDS011;72357;52.110;5.252;2023-08-20T10:48:26;4.61;;;1.11;;
82656;SDS011;72357;52.110;5.252;2023-08-20T10:50:04;5.2;;;1.5;;
82656;SDS011;72357;52.110;5.252;2023-08-20T10:53:21;4.2;;;1.11;;
82656;SDS011;72357;52.110;5.252;2023-08-20T10:54:58;3.6;;;0.9;;
82656;SDS011;72357;52.110;5.252;2023-08-20T10:56:37;5.8;;;1.4;;
82656;SDS011;72357;52.110;5.252;2023-08-20T10:58:23;6.6;;;1.4;;
82656;SDS011;72357;52.110;5.252;2023-08-20T11:01:43;4.7;;;1.3;;
82656;SDS011;72357;52.110;5.252;2023-08-20T11:03:21;3.6;;;1.3;;
82656;SDS011;72357;52.110;5.252;2023-08-20T11:04:59;4.41;;;1.4;;
82656;SDS011;72357;52.110;5.252;2023-08-20T11:06:36;4.91;;;1.11;;
82656;SDS011;72357;52.110;5.252;2023-08-20T11:09:52;3.0;;;1.0;;
82656;SDS011;72357;52.110;5.252;2023-08-20T11:11:29;4.1;;;1.3;;
82656;SDS011;72357;52.110;5.252;2023-08-20T11:13:07;4.0;;;1.3;;
82656;SDS011;72357;52.110;5.252;2023-08-20T11:14:45;3.6;;;1.11;;
82656;SDS011;72357;52.110;5.252;2023-08-20T11:17:59;3.6;;;1.11;;
82656;SDS011;72357;52.110;5.252;2023-08-20T11:19:37;4.2;;;1.11;;
82656;SDS011;72357;52.110;5.252;2023-08-20T11:21:14;3.8;;;1.11;;
82656;SDS011;72357;52.110;5.252;2023-08-20T11:24:28;3.0;;;0.9;;
82656;SDS011;72357;52.110;5.252;2023-08-20T11:26:05;3.3;;;0.9;;
82656;SDS011;72357;52.110;5.252;2023-08-20T11:27:44;5.3;;;1.5;;
82656;SDS011;72357;52.110;5.252;2023-08-20T11:30:58;4.8;;;1.11;;
82656;SDS011;72357;52.110;5.252;2023-08-20T11:32:35;4.0;;;1.11;;
82656;SDS011;72357;52.110;5.252;2023-08-20T11:34:11;3.3;;;1.4;;
82656;SDS011;72357;52.110;5.252;2023-08-20T11:35:49;4.2;;;1.3;;
82656;SDS011;72357;52.110;5.252;2023-08-20T11:39:03;3.9;;;1.11;;
82656;SDS011;72357;52.110;5.252;2023-08-20T11:40:41;4.5;;;1.11;;
82656;SDS011;72357;52.110;5.252;2023-08-20T11:42:18;3.3;;;1.2;;
82656;SDS011;72357;52.110;5.252;2023-08-20T11:45:34;5.11;;;1.2;;
82656;SDS011;72357;52.110;5.252;2023-08-20T11:47:21;5.11;;;1.3;;
82656;SDS011;72357;52.110;5.252;2023-08-20T11:48:59;4.0;;;1.11;;
82656;SDS011;72357;52.110;5.252;2023-08-20T11:50:36;4.2;;;1.4;;
82656;SDS011;72357;52.110;5.252;2023-08-20T11:53:50;3.3;;;0.9;;
82656;SDS011;72357;52.110;5.252;2023-08-20T11:55:29;4.0;;;1.0;;
82656;SDS011;72357;52.110;5.252;2023-08-20T11:57:06;3.8;;;1.4;;
82656;SDS011;72357;52.110;5.252;2023-08-20T11:58:43;3.6;;;1.2;;
82656;SDS011;72357;52.110;5.252;2023-08-20T12:02:05;3.4;;;1.0;;
82656;SDS011;72357;52.110;5.252;2023-08-20T12:03:43;4.7;;;1.3;;
82656;SDS011;72357;52.110;5.252;2023-08-20T12:05:20;4.3;;;1.11;;
82656;SDS011;72357;52.110;5.252;2023-08-20T12:08:40;3.7;;;1.0;;
82656;SDS011;72357;52.110;5.252;2023-08-20T12:10:20;3.8;;;1.11;;
82656;SDS011;72357;52.110;5.252;2023-08-20T12:11:59;3.8;;;1.2;;
82656;SDS011;72357;52.110;5.252;2023-08-20T12:13:35;5.11;;;1.4;;
82656;SDS011;72357;52.110;5.252;2023-08-20T12:16:50;4.1;;;1.3;;
82656;SDS011;72357;52.110;5.252;2023-08-20T12:18:30;3.1;;;1.2;;
82656;SDS011;72357;52.110;5.252;2023-08-20T12:20:07;3.7;;;1.0;;
82656;SDS011;72357;52.110;5.252;2023-08-20T12:21:44;2.9;;;1.11;;
82656;SDS011;72357;52.110;5.252;2023-08-20T12:24:58;3.7;;;1.3;;
82656;SDS011;72357;52.110;5.252;2023-08-20T12:26:35;3.0;;;1.0;;
82656;SDS011;72357;52.110;5.252;2023-08-20T12:28:12;3.2;;;1.0;;
82656;SDS011;72357;52.110;5.252;2023-08-20T12:31:26;4.1;;;1.11;;
82656;SDS011;72357;52.110;5.252;2023-08-20T12:33:03;4.1;;;1.11;;
82656;SDS011;72357;52.110;5.252;2023-08-20T12:34:40;4.3;;;1.0;;
82656;SDS011;72357;52.110;5.252;2023-08-20T12:37:54;3.6;;;1.2;;
82656;SDS011;72357;52.110;5.252;2023-08-20T12:39:31;5.5;;;1.2;;
82656;SDS011;72357;52.110;5.252;2023-08-20T12:41:08;4.8;;;1.11;;
82656;SDS011;72357;52.110;5.252;2023-08-20T12:42:45;3.7;;;1.11;;
82656;SDS011;72357;52.110;5.252;2023-08-20T12:45:59;4.91;;;1.3;;
82656;SDS011;72357;52.110;5.252;2023-08-20T12:47:35;3.1;;;1.11;;
82656;SDS011;72357;52.110;5.252;2023-08-20T12:49:12;4.2;;;1.11;;
82656;SDS011;72357;52.110;5.252;2023-08-20T12:52:26;4.3;;;1.2;;
82656;SDS011;72357;52.110;5.252;2023-08-20T12:54:03;5.11;;;1.2;;
82656;SDS011;72357;52.110;5.252;2023-08-20T12:55:40;5.4;;;1.4;;
82656;SDS011;72357;52.110;5.252;2023-08-20T12:57:17;4.5;;;1.11;;
82656;SDS011;72357;52.110;5.252;2023-08-20T13:00:32;3.6;;;1.3;;
82656;SDS011;72357;52.110;5.252;2023-08-20T13:02:08;4.0;;;1.6;;